sensor_id;sensor_type;location;lat;lon;timestamp;pressure;altitude;pressure_sealevel;temperature;humidity
67013;BME280;53926;47.406;19.188;2023-03-12T00:01:59;99741.53;;;0.57;78.42
67013;BME280;53926;47.406;19.188;2023-03-12T00:04:26;99739.12;;;0.55;78.42
67013;BME280;53926;47.406;19.188;2023-03-12T00:06:53;99765.25;;;0.59;78.34
67013;BME280;53926;47.406;19.188;2023-03-12T00:09:20;99763.63;;;0.58;78.15
67013;BME280;53926;47.406;19.188;2023-03-12T00:11:46;99768.16;;;0.64;77.77
67013;BME280;53926;47.406;19.188;2023-03-12T00:14:13;99766.22;;;0.58;78.18
67013;BME280;53926;47.406;19.188;2023-03-12T00:16:39;99775.59;;;0.49;79.13
67013;BME280;53926;47.406;19.188;2023-03-12T00:19:06;99784.72;;;0.43;79.27
67013;BME280;53926;47.406;19.188;2023-03-12T00:21:33;99778.03;;;0.50;77.30
67013;BME280;53926;47.406;19.188;2023-03-12T00:23:59;99784.75;;;0.51;77.23
67013;BME280;53926;47.406;19.188;2023-03-12T00:26:26;99785.06;;;0.48;77.17
67013;BME280;53926;47.406;19.188;2023-03-12T00:28:53;99790.03;;;0.50;76.59
67013;BME280;53926;47.406;19.188;2023-03-12T00:31:24;99799.12;;;0.44;76.80
67013;BME280;53926;47.406;19.188;2023-03-12T00:33:53;99791.09;;;0.31;77.73
67013;BME280;53926;47.406;19.188;2023-03-12T00:36:22;99794.59;;;0.30;77.63
67013;BME280;53926;47.406;19.188;2023-03-12T00:38:52;99791.19;;;0.21;78.05
67013;BME280;53926;47.406;19.188;2023-03-12T00:41:20;99794.13;;;0.00;79.45
67013;BME280;53926;47.406;19.188;2023-03-12T00:43:48;99791.34;;;-0.07;81.03
67013;BME280;53926;47.406;19.188;2023-03-12T00:46:15;99796.94;;;-0.03;79.53
67013;BME280;53926;47.406;19.188;2023-03-12T00:48:43;99808.38;;;-0.15;80.26
67013;BME280;53926;47.406;19.188;2023-03-12T00:51:10;99804.53;;;-0.20;81.16
67013;BME280;53926;47.406;19.188;2023-03-12T00:53:37;99810.19;;;-0.08;79.40
67013;BME280;53926;47.406;19.188;2023-03-12T00:56:04;99809.91;;;-0.05;79.62
67013;BME280;53926;47.406;19.188;2023-03-12T00:58:31;99814.81;;;-0.11;80.25
67013;BME280;53926;47.406;19.188;2023-03-12T01:00:58;99813.94;;;-0.02;78.92
67013;BME280;53926;47.406;19.188;2023-03-12T01:03:25;99817.66;;;0.04;78.27
67013;BME280;53926;47.406;19.188;2023-03-12T01:05:51;99809.09;;;-0.05;79.45
67013;BME280;53926;47.406;19.188;2023-03-12T01:08:22;99819.50;;;-0.07;79.50
67013;BME280;53926;47.406;19.188;2023-03-12T01:10:48;99810.06;;;-0.06;78.91
67013;BME280;53926;47.406;19.188;2023-03-12T01:13:15;99805.91;;;-0.07;78.98
67013;BME280;53926;47.406;19.188;2023-03-12T01:15:42;99806.78;;;0.02;78.06
67013;BME280;53926;47.406;19.188;2023-03-12T01:18:09;99807.41;;;0.04;77.12
67013;BME280;53926;47.406;19.188;2023-03-12T01:20:35;99809.66;;;0.07;75.97
67013;BME280;53926;47.406;19.188;2023-03-12T01:23:02;99803.19;;;-0.06;76.97
67013;BME280;53926;47.406;19.188;2023-03-12T01:25:29;99802.75;;;-0.01;75.67
67013;BME280;53926;47.406;19.188;2023-03-12T01:27:55;99811.63;;;-0.13;76.08
67013;BME280;53926;47.406;19.188;2023-03-12T01:30:22;99805.97;;;-0.17;76.39
67013;BME280;53926;47.406;19.188;2023-03-12T01:32:50;99813.28;;;-0.04;74.16
67013;BME280;53926;47.406;19.188;2023-03-12T01:35:17;99816.28;;;-0.09;74.16
67013;BME280;53926;47.406;19.188;2023-03-12T01:37:44;99809.44;;;-0.26;75.31
67013;BME280;53926;47.406;19.188;2023-03-12T01:40:16;99815.63;;;-0.11;73.55
67013;BME280;53926;47.406;19.188;2023-03-12T01:42:54;99815.84;;;-0.04;72.27
67013;BME280;53926;47.406;19.188;2023-03-12T01:45:57;99812.88;;;0.09;70.17
67013;BME280;53926;47.406;19.188;2023-03-12T01:48:31;99811.53;;;-0.04;70.86
67013;BME280;53926;47.406;19.188;2023-03-12T01:51:00;99815.16;;;-0.06;70.77
67013;BME280;53926;47.406;19.188;2023-03-12T01:53:28;99819.72;;;0.00;70.92
67013;BME280;53926;47.406;19.188;2023-03-12T01:55:57;99816.28;;;-0.09;70.83
67013;BME280;53926;47.406;19.188;2023-03-12T01:58:25;99817.53;;;-0.13;71.54
67013;BME280;53926;47.406;19.188;2023-03-12T02:00:53;99829.75;;;-0.25;71.50
67013;BME280;53926;47.406;19.188;2023-03-12T02:03:20;99836.72;;;-0.35;72.03
67013;BME280;53926;47.406;19.188;2023-03-12T02:05:52;99831.38;;;-0.24;71.43
67013;BME280;53926;47.406;19.188;2023-03-12T02:08:22;99833.78;;;-0.22;71.04
67013;BME280;53926;47.406;19.188;2023-03-12T02:10:49;99844.12;;;-0.32;71.43
67013;BME280;53926;47.406;19.188;2023-03-12T02:13:15;99854.06;;;-0.29;71.49
67013;BME280;53926;47.406;19.188;2023-03-12T02:15:42;99852.22;;;-0.37;71.22
67013;BME280;53926;47.406;19.188;2023-03-12T02:18:12;99854.94;;;-0.38;71.75
67013;BME280;53926;47.406;19.188;2023-03-12T02:20:52;99861.94;;;-0.40;72.12
67013;BME280;53926;47.406;19.188;2023-03-12T02:23:39;99855.81;;;-0.47;72.29
67013;BME280;53926;47.406;19.188;2023-03-12T02:26:09;99866.03;;;-0.47;72.40
67013;BME280;53926;47.406;19.188;2023-03-12T02:28:37;99858.22;;;-0.46;71.97
67013;BME280;53926;47.406;19.188;2023-03-12T02:31:13;99865.91;;;-0.46;72.53
67013;BME280;53926;47.406;19.188;2023-03-12T02:33:41;99866.19;;;-0.49;72.35
67013;BME280;53926;47.406;19.188;2023-03-12T02:36:08;99860.03;;;-0.56;72.85
67013;BME280;53926;47.406;19.188;2023-03-12T02:38:49;99870.13;;;-0.55;73.01
67013;BME280;53926;47.406;19.188;2023-03-12T02:41:31;99866.34;;;-0.50;72.37
67013;BME280;53926;47.406;19.188;2023-03-12T02:44:06;99874.00;;;-0.68;73.53
67013;BME280;53926;47.406;19.188;2023-03-12T02:46:39;99887.69;;;-0.87;74.33
67013;BME280;53926;47.406;19.188;2023-03-12T02:49:07;99890.84;;;-0.94;74.97
67013;BME280;53926;47.406;19.188;2023-03-12T02:51:34;99893.09;;;-1.18;76.86
67013;BME280;53926;47.406;19.188;2023-03-12T02:54:00;99908.16;;;-0.87;75.11
67013;BME280;53926;47.406;19.188;2023-03-12T02:56:27;99911.94;;;-0.92;75.02
67013;BME280;53926;47.406;19.188;2023-03-12T02:58:54;99912.97;;;-1.12;76.48
67013;BME280;53926;47.406;19.188;2023-03-12T03:01:21;99922.78;;;-1.17;77.14
67013;BME280;53926;47.406;19.188;2023-03-12T03:03:48;99920.06;;;-1.06;76.94
67013;BME280;53926;47.406;19.188;2023-03-12T03:06:16;99914.59;;;-1.21;77.71
67013;BME280;53926;47.406;19.188;2023-03-12T03:08:42;99924.47;;;-1.36;78.65
67013;BME280;53926;47.406;19.188;2023-03-12T03:11:09;99926.81;;;-1.52;80.10
67013;BME280;53926;47.406;19.188;2023-03-12T03:13:36;99929.19;;;-1.41;79.53
67013;BME280;53926;47.406;19.188;2023-03-12T03:16:03;99933.00;;;-1.17;78.34
67013;BME280;53926;47.406;19.188;2023-03-12T03:18:31;99935.69;;;-1.09;77.88
67013;BME280;53926;47.406;19.188;2023-03-12T03:21:03;99946.06;;;-1.11;78.50
67013;BME280;53926;47.406;19.188;2023-03-12T03:23:31;99943.41;;;-1.29;79.82
67013;BME280;53926;47.406;19.188;2023-03-12T03:25:58;99944.75;;;-1.24;79.54
67013;BME280;53926;47.406;19.188;2023-03-12T03:28:26;99942.63;;;-1.29;79.75
67013;BME280;53926;47.406;19.188;2023-03-12T03:30:55;99952.34;;;-1.52;81.71
67013;BME280;53926;47.406;19.188;2023-03-12T03:33:23;99960.28;;;-1.55;82.24
67013;BME280;53926;47.406;19.188;2023-03-12T03:35:50;99975.31;;;-1.62;83.47
67013;BME280;53926;47.406;19.188;2023-03-12T03:38:17;99973.88;;;-1.65;83.22
67013;BME280;53926;47.406;19.188;2023-03-12T03:40:43;99973.34;;;-1.78;83.75
67013;BME280;53926;47.406;19.188;2023-03-12T03:43:10;99981.66;;;-2.05;85.99
67013;BME280;53926;47.406;19.188;2023-03-12T03:45:37;99987.16;;;-2.20;89.03
67013;BME280;53926;47.406;19.188;2023-03-12T03:48:04;99989.72;;;-2.00;87.55
67013;BME280;53926;47.406;19.188;2023-03-12T03:50:31;99986.47;;;-2.22;88.86
67013;BME280;53926;47.406;19.188;2023-03-12T03:52:58;99984.31;;;-2.77;91.79
67013;BME280;53926;47.406;19.188;2023-03-12T03:55:24;99983.69;;;-3.00;95.90
67013;BME280;53926;47.406;19.188;2023-03-12T03:57:51;99990.31;;;-3.18;96.86
67013;BME280;53926;47.406;19.188;2023-03-12T04:00:18;99991.66;;;-3.56;99.31
67013;BME280;53926;47.406;19.188;2023-03-12T04:02:45;99988.06;;;-3.75;100.00
67013;BME280;53926;47.406;19.188;2023-03-12T04:05:12;99988.22;;;-3.88;100.00
67013;BME280;53926;47.406;19.188;2023-03-12T04:07:41;99986.72;;;-3.37;100.00
67013;BME280;53926;47.406;19.188;2023-03-12T04:10:08;99978.44;;;-3.50;100.00
67013;BME280;53926;47.406;19.188;2023-03-12T04:12:35;99999.59;;;-3.71;100.00
67013;BME280;53926;47.406;19.188;2023-03-12T04:15:02;100000.66;;;-3.73;100.00
67013;BME280;53926;47.406;19.188;2023-03-12T04:17:29;100006.72;;;-3.86;100.00
67013;BME280;53926;47.406;19.188;2023-03-12T04:19:56;100000.72;;;-3.96;100.00
67013;BME280;53926;47.406;19.188;2023-03-12T04:22:22;100000.22;;;-3.57;100.00
67013;BME280;53926;47.406;19.188;2023-03-12T04:24:49;99993.22;;;-3.44;100.00
67013;BME280;53926;47.406;19.188;2023-03-12T04:27:16;100009.00;;;-3.50;100.00
67013;BME280;53926;47.406;19.188;2023-03-12T04:29:42;100020.16;;;-3.20;100.00
67013;BME280;53926;47.406;19.188;2023-03-12T04:32:10;100035.56;;;-3.01;100.00
67013;BME280;53926;47.406;19.188;2023-03-12T04:34:36;100037.47;;;-2.93;100.00
67013;BME280;53926;47.406;19.188;2023-03-12T04:37:03;100041.28;;;-2.88;100.00
67013;BME280;53926;47.406;19.188;2023-03-12T04:39:30;100048.03;;;-2.98;100.00
67013;BME280;53926;47.406;19.188;2023-03-12T04:41:56;100063.38;;;-2.88;100.00
67013;BME280;53926;47.406;19.188;2023-03-12T04:44:23;100076.06;;;-2.77;100.00
67013;BME280;53926;47.406;19.188;2023-03-12T04:46:49;100068.03;;;-2.72;100.00
67013;BME280;53926;47.406;19.188;2023-03-12T04:49:16;100077.91;;;-2.79;100.00
67013;BME280;53926;47.406;19.188;2023-03-12T04:51:43;100086.06;;;-2.85;100.00
67013;BME280;53926;47.406;19.188;2023-03-12T04:54:09;100083.16;;;-3.22;100.00
67013;BME280;53926;47.406;19.188;2023-03-12T04:56:36;100088.19;;;-3.32;100.00
67013;BME280;53926;47.406;19.188;2023-03-12T04:59:03;100084.66;;;-3.20;100.00
67013;BME280;53926;47.406;19.188;2023-03-12T05:01:32;100078.59;;;-3.19;100.00
67013;BME280;53926;47.406;19.188;2023-03-12T05:03:59;100075.47;;;-3.44;100.00
67013;BME280;53926;47.406;19.188;2023-03-12T05:06:26;100088.31;;;-3.66;100.00
67013;BME280;53926;47.406;19.188;2023-03-12T05:08:52;100082.72;;;-3.92;100.00
67013;BME280;53926;47.406;19.188;2023-03-12T05:11:20;100098.03;;;-3.71;100.00
67013;BME280;53926;47.406;19.188;2023-03-12T05:13:47;100091.37;;;-3.95;100.00
67013;BME280;53926;47.406;19.188;2023-03-12T05:16:14;100099.81;;;-3.95;100.00
67013;BME280;53926;47.406;19.188;2023-03-12T05:18:42;100100.63;;;-3.94;100.00
67013;BME280;53926;47.406;19.188;2023-03-12T05:21:12;100098.37;;;-3.65;100.00
67013;BME280;53926;47.406;19.188;2023-03-12T05:23:40;100107.81;;;-3.55;100.00
67013;BME280;53926;47.406;19.188;2023-03-12T05:26:27;100110.31;;;-3.44;100.00
67013;BME280;53926;47.406;19.188;2023-03-12T05:28:54;100117.41;;;-3.27;100.00
67013;BME280;53926;47.406;19.188;2023-03-12T05:31:21;100116.44;;;-3.35;100.00
67013;BME280;53926;47.406;19.188;2023-03-12T05:33:48;100114.50;;;-3.43;100.00
67013;BME280;53926;47.406;19.188;2023-03-12T05:36:19;100122.00;;;-3.42;100.00
67013;BME280;53926;47.406;19.188;2023-03-12T05:38:46;100123.53;;;-3.18;100.00
67013;BME280;53926;47.406;19.188;2023-03-12T05:41:25;100136.31;;;-3.08;100.00
67013;BME280;53926;47.406;19.188;2023-03-12T05:43:53;100130.88;;;-3.03;100.00
67013;BME280;53926;47.406;19.188;2023-03-12T05:46:19;100133.59;;;-2.74;100.00
67013;BME280;53926;47.406;19.188;2023-03-12T05:48:46;100139.19;;;-2.59;100.00
67013;BME280;53926;47.406;19.188;2023-03-12T05:51:16;100135.97;;;-2.40;100.00
67013;BME280;53926;47.406;19.188;2023-03-12T05:53:43;100139.66;;;-2.23;100.00
67013;BME280;53926;47.406;19.188;2023-03-12T05:56:13;100145.06;;;-2.07;100.00
67013;BME280;53926;47.406;19.188;2023-03-12T05:58:40;100152.25;;;-1.91;100.00
67013;BME280;53926;47.406;19.188;2023-03-12T06:01:18;100166.25;;;-1.75;100.00
67013;BME280;53926;47.406;19.188;2023-03-12T06:03:47;100161.81;;;-1.73;100.00
67013;BME280;53926;47.406;19.188;2023-03-12T06:06:14;100174.38;;;-1.51;100.00
67013;BME280;53926;47.406;19.188;2023-03-12T06:08:41;100180.41;;;-1.42;100.00
67013;BME280;53926;47.406;19.188;2023-03-12T06:11:09;100177.38;;;-1.26;100.00
67013;BME280;53926;47.406;19.188;2023-03-12T06:13:36;100183.53;;;-0.99;100.00
67013;BME280;53926;47.406;19.188;2023-03-12T06:16:07;100187.59;;;-0.97;100.00
67013;BME280;53926;47.406;19.188;2023-03-12T06:18:34;100194.69;;;-0.71;100.00
67013;BME280;53926;47.406;19.188;2023-03-12T06:21:19;100203.69;;;-0.57;100.00
67013;BME280;53926;47.406;19.188;2023-03-12T06:23:47;100207.97;;;-0.38;100.00
67013;BME280;53926;47.406;19.188;2023-03-12T06:26:15;100219.13;;;-0.29;100.00
67013;BME280;53926;47.406;19.188;2023-03-12T06:28:44;100223.53;;;-0.12;100.00
67013;BME280;53926;47.406;19.188;2023-03-12T06:31:11;100222.94;;;0.04;98.39
67013;BME280;53926;47.406;19.188;2023-03-12T06:33:38;100230.16;;;0.19;97.90
67013;BME280;53926;47.406;19.188;2023-03-12T06:36:06;100232.59;;;0.20;96.64
67013;BME280;53926;47.406;19.188;2023-03-12T06:38:36;100241.50;;;0.44;95.66
67013;BME280;53926;47.406;19.188;2023-03-12T06:41:14;100235.16;;;0.66;93.06
67013;BME280;53926;47.406;19.188;2023-03-12T06:43:43;100244.19;;;0.70;93.61
67013;BME280;53926;47.406;19.188;2023-03-12T06:46:15;100238.66;;;0.93;91.75
67013;BME280;53926;47.406;19.188;2023-03-12T06:48:42;100249.25;;;0.98;90.27
67013;BME280;53926;47.406;19.188;2023-03-12T06:51:14;100244.22;;;1.24;88.63
67013;BME280;53926;47.406;19.188;2023-03-12T06:53:41;100243.06;;;1.63;87.26
67013;BME280;53926;47.406;19.188;2023-03-12T06:56:08;100238.44;;;2.35;80.85
67013;BME280;53926;47.406;19.188;2023-03-12T06:58:35;100246.84;;;2.45;79.61
67013;BME280;53926;47.406;19.188;2023-03-12T07:01:03;100249.16;;;2.65;76.58
67013;BME280;53926;47.406;19.188;2023-03-12T07:03:30;100248.09;;;3.58;72.93
67013;BME280;53926;47.406;19.188;2023-03-12T07:05:57;100250.78;;;4.45;67.53
67013;BME280;53926;47.406;19.188;2023-03-12T07:08:25;100258.06;;;4.65;66.14
67013;BME280;53926;47.406;19.188;2023-03-12T07:10:52;100257.56;;;5.01;62.56
67013;BME280;53926;47.406;19.188;2023-03-12T07:13:21;100259.97;;;5.03;62.52
67013;BME280;53926;47.406;19.188;2023-03-12T07:15:47;100260.41;;;5.06;62.33
67013;BME280;53926;47.406;19.188;2023-03-12T07:18:14;100266.75;;;7.12;56.58
67013;BME280;53926;47.406;19.188;2023-03-12T07:20:42;100268.13;;;8.21;50.55
67013;BME280;53926;47.406;19.188;2023-03-12T07:23:10;100276.53;;;8.72;46.68
67013;BME280;53926;47.406;19.188;2023-03-12T07:25:38;100269.53;;;8.24;49.29
67013;BME280;53926;47.406;19.188;2023-03-12T07:28:06;100275.81;;;7.23;52.46
67013;BME280;53926;47.406;19.188;2023-03-12T07:30:35;100285.94;;;7.96;49.30
67013;BME280;53926;47.406;19.188;2023-03-12T07:33:05;100283.22;;;8.46;47.91
67013;BME280;53926;47.406;19.188;2023-03-12T07:35:32;100272.16;;;8.31;46.88
67013;BME280;53926;47.406;19.188;2023-03-12T07:37:59;100287.41;;;7.06;46.59
67013;BME280;53926;47.406;19.188;2023-03-12T07:40:27;100284.97;;;6.83;47.91
67013;BME280;53926;47.406;19.188;2023-03-12T07:42:56;100288.19;;;7.78;46.22
67013;BME280;53926;47.406;19.188;2023-03-12T07:45:23;100282.41;;;7.04;48.32
67013;BME280;53926;47.406;19.188;2023-03-12T07:47:50;100289.94;;;8.89;45.15
67013;BME280;53926;47.406;19.188;2023-03-12T07:50:17;100297.00;;;9.22;46.77
67013;BME280;53926;47.406;19.188;2023-03-12T07:52:45;100290.28;;;10.19;40.54
67013;BME280;53926;47.406;19.188;2023-03-12T07:55:12;100289.88;;;10.36;39.49
67013;BME280;53926;47.406;19.188;2023-03-12T07:57:39;100285.47;;;12.45;37.04
67013;BME280;53926;47.406;19.188;2023-03-12T08:00:07;100290.22;;;10.53;39.04
67013;BME280;53926;47.406;19.188;2023-03-12T08:02:35;100293.81;;;9.66;40.86
67013;BME280;53926;47.406;19.188;2023-03-12T08:05:03;100297.34;;;10.06;37.28
67013;BME280;53926;47.406;19.188;2023-03-12T08:07:31;100297.31;;;8.85;38.33
67013;BME280;53926;47.406;19.188;2023-03-12T08:10:01;100298.22;;;8.51;40.46
67013;BME280;53926;47.406;19.188;2023-03-12T08:12:28;100302.09;;;10.81;36.31
67013;BME280;53926;47.406;19.188;2023-03-12T08:14:55;100308.78;;;9.91;37.77
67013;BME280;53926;47.406;19.188;2023-03-12T08:17:21;100304.97;;;9.94;37.73
67013;BME280;53926;47.406;19.188;2023-03-12T08:19:48;100306.38;;;8.48;39.75
67013;BME280;53926;47.406;19.188;2023-03-12T08:22:15;100298.63;;;11.25;34.38
67013;BME280;53926;47.406;19.188;2023-03-12T08:24:42;100295.94;;;12.08;33.85
67013;BME280;53926;47.406;19.188;2023-03-12T08:27:09;100305.91;;;10.26;37.96
67013;BME280;53926;47.406;19.188;2023-03-12T08:29:38;100308.31;;;8.87;41.03
67013;BME280;53926;47.406;19.188;2023-03-12T08:32:05;100310.72;;;8.05;42.31
67013;BME280;53926;47.406;19.188;2023-03-12T08:34:33;100314.59;;;9.46;39.24
67013;BME280;53926;47.406;19.188;2023-03-12T08:37:01;100305.13;;;10.19;38.37
67013;BME280;53926;47.406;19.188;2023-03-12T08:39:28;100307.78;;;9.12;40.40
67013;BME280;53926;47.406;19.188;2023-03-12T08:41:55;100320.34;;;10.09;38.36
67013;BME280;53926;47.406;19.188;2023-03-12T08:44:22;100330.28;;;8.78;38.42
67013;BME280;53926;47.406;19.188;2023-03-12T08:46:49;100336.72;;;9.02;37.29
67013;BME280;53926;47.406;19.188;2023-03-12T08:49:16;100328.56;;;10.12;35.29
67013;BME280;53926;47.406;19.188;2023-03-12T08:51:44;100330.88;;;11.31;35.53
67013;BME280;53926;47.406;19.188;2023-03-12T08:54:10;100323.62;;;12.27;32.26
67013;BME280;53926;47.406;19.188;2023-03-12T08:56:37;100321.03;;;11.58;33.90
67013;BME280;53926;47.406;19.188;2023-03-12T08:59:09;100325.81;;;9.60;35.89
67013;BME280;53926;47.406;19.188;2023-03-12T09:01:36;100320.72;;;10.84;34.26
67013;BME280;53926;47.406;19.188;2023-03-12T09:04:03;100320.41;;;9.75;35.91
67013;BME280;53926;47.406;19.188;2023-03-12T09:06:31;100323.06;;;11.56;34.47
67013;BME280;53926;47.406;19.188;2023-03-12T09:08:58;100320.59;;;11.87;33.30
67013;BME280;53926;47.406;19.188;2023-03-12T09:11:33;100317.03;;;11.56;35.05
67013;BME280;53926;47.406;19.188;2023-03-12T09:14:01;100323.62;;;11.84;32.42
67013;BME280;53926;47.406;19.188;2023-03-12T09:16:48;100325.59;;;11.38;32.96
67013;BME280;53926;47.406;19.188;2023-03-12T09:19:15;100318.03;;;11.30;31.60
67013;BME280;53926;47.406;19.188;2023-03-12T09:21:42;100323.81;;;12.93;29.08
67013;BME280;53926;47.406;19.188;2023-03-12T09:24:09;100310.97;;;12.92;31.85
67013;BME280;53926;47.406;19.188;2023-03-12T09:26:36;100316.50;;;13.56;30.35
67013;BME280;53926;47.406;19.188;2023-03-12T09:29:03;100317.16;;;13.51;30.30
67013;BME280;53926;47.406;19.188;2023-03-12T09:31:30;100319.56;;;14.53;27.99
67013;BME280;53926;47.406;19.188;2023-03-12T09:33:56;100330.09;;;11.24;32.30
67013;BME280;53926;47.406;19.188;2023-03-12T09:36:23;100325.28;;;10.96;34.06
67013;BME280;53926;47.406;19.188;2023-03-12T09:38:49;100324.22;;;12.11;33.45
67013;BME280;53926;47.406;19.188;2023-03-12T09:41:24;100317.19;;;11.04;30.86
67013;BME280;53926;47.406;19.188;2023-03-12T09:44:02;100319.84;;;10.52;32.33
67013;BME280;53926;47.406;19.188;2023-03-12T09:46:55;100329.00;;;12.32;31.41
67013;BME280;53926;47.406;19.188;2023-03-12T09:50:00;100326.22;;;12.27;28.54
67013;BME280;53926;47.406;19.188;2023-03-12T09:52:33;100320.66;;;13.03;29.46
67013;BME280;53926;47.406;19.188;2023-03-12T09:57:46;100336.72;;;13.06;29.54
67013;BME280;53926;47.406;19.188;2023-03-12T10:00:22;100337.09;;;14.52;28.97
67013;BME280;53926;47.406;19.188;2023-03-12T10:05:45;100333.03;;;12.65;29.79
67013;BME280;53926;47.406;19.188;2023-03-12T10:27:13;100321.84;;;14.61;27.08
67013;BME280;53926;47.406;19.188;2023-03-12T10:29:43;100323.16;;;15.55;28.04
67013;BME280;53926;47.406;19.188;2023-03-12T10:32:26;100325.47;;;15.51;28.25
67013;BME280;53926;47.406;19.188;2023-03-12T10:35:22;100320.19;;;16.96;25.30
67013;BME280;53926;47.406;19.188;2023-03-12T10:37:51;100312.94;;;18.36;23.32
67013;BME280;53926;47.406;19.188;2023-03-12T10:40:22;100328.75;;;17.13;26.07
67013;BME280;53926;47.406;19.188;2023-03-12T10:42:49;100322.31;;;15.83;26.68
67013;BME280;53926;47.406;19.188;2023-03-12T10:45:26;100334.53;;;17.48;24.54
67013;BME280;53926;47.406;19.188;2023-03-12T10:48:01;100334.53;;;15.44;28.34
67013;BME280;53926;47.406;19.188;2023-03-12T10:50:35;100332.50;;;16.90;23.57
67013;BME280;53926;47.406;19.188;2023-03-12T10:55:39;100341.38;;;17.86;22.23
67013;BME280;53926;47.406;19.188;2023-03-12T10:58:05;100337.09;;;18.18;20.89
67013;BME280;53926;47.406;19.188;2023-03-12T11:00:32;100329.66;;;18.10;21.08
67013;BME280;53926;47.406;19.188;2023-03-12T11:05:44;100341.56;;;14.63;27.35
67013;BME280;53926;47.406;19.188;2023-03-12T11:08:29;100347.91;;;14.03;27.86
67013;BME280;53926;47.406;19.188;2023-03-12T11:10:58;100333.56;;;13.58;28.42
67013;BME280;53926;47.406;19.188;2023-03-12T11:13:32;100342.53;;;14.10;26.35
67013;BME280;53926;47.406;19.188;2023-03-12T11:18:56;100335.47;;;17.69;22.87
67013;BME280;53926;47.406;19.188;2023-03-12T11:21:25;100327.28;;;13.95;28.25
67013;BME280;53926;47.406;19.188;2023-03-12T11:29:22;100318.59;;;16.01;23.49
67013;BME280;53926;47.406;19.188;2023-03-12T11:34:30;100320.81;;;15.76;23.83
67013;BME280;53926;47.406;19.188;2023-03-12T11:37:22;100321.16;;;16.18;22.51
67013;BME280;53926;47.406;19.188;2023-03-12T11:51:24;100322.41;;;16.82;23.79
67013;BME280;53926;47.406;19.188;2023-03-12T11:56:55;100318.00;;;16.16;23.66
67013;BME280;53926;47.406;19.188;2023-03-12T12:02:34;100309.16;;;15.49;26.24
67013;BME280;53926;47.406;19.188;2023-03-12T12:05:33;100309.41;;;15.48;24.61
67013;BME280;53926;47.406;19.188;2023-03-12T12:11:04;100298.16;;;17.02;23.72
67013;BME280;53926;47.406;19.188;2023-03-12T12:16:22;100294.75;;;14.84;24.58
67013;BME280;53926;47.406;19.188;2023-03-12T12:27:18;100286.19;;;14.07;27.77
67013;BME280;53926;47.406;19.188;2023-03-12T12:38:00;100277.03;;;16.42;22.83
67013;BME280;53926;47.406;19.188;2023-03-12T12:40:41;100278.47;;;14.82;21.77
67013;BME280;53926;47.406;19.188;2023-03-12T12:43:46;100265.50;;;13.94;24.16
67013;BME280;53926;47.406;19.188;2023-03-12T12:46:22;100264.56;;;15.32;21.42
67013;BME280;53926;47.406;19.188;2023-03-12T12:48:58;100274.06;;;14.88;20.93
67013;BME280;53926;47.406;19.188;2023-03-12T12:51:29;100274.56;;;14.84;20.80
67013;BME280;53926;47.406;19.188;2023-03-12T13:01:53;100266.12;;;14.25;21.43
67013;BME280;53926;47.406;19.188;2023-03-12T13:04:29;100276.09;;;15.31;19.07
67013;BME280;53926;47.406;19.188;2023-03-12T13:10:05;100281.91;;;12.39;22.55
67013;BME280;53926;47.406;19.188;2023-03-12T13:12:41;100276.78;;;12.32;21.76
67013;BME280;53926;47.406;19.188;2023-03-12T13:20:24;100277.16;;;12.66;22.20
67013;BME280;53926;47.406;19.188;2023-03-12T13:23:00;100274.06;;;12.39;21.56
67013;BME280;53926;47.406;19.188;2023-03-12T13:26:02;100285.06;;;13.44;19.16
67013;BME280;53926;47.406;19.188;2023-03-12T13:34:06;100280.44;;;14.34;22.18
67013;BME280;53926;47.406;19.188;2023-03-12T13:36:47;100280.97;;;12.33;21.10
67013;BME280;53926;47.406;19.188;2023-03-12T13:41:47;100290.41;;;12.16;18.56
67013;BME280;53926;47.406;19.188;2023-03-12T13:49:24;100296.91;;;12.44;21.73
67013;BME280;53926;47.406;19.188;2023-03-12T13:54:43;100289.22;;;11.93;21.04
67013;BME280;53926;47.406;19.188;2023-03-12T14:02:44;100287.34;;;12.38;21.65
67013;BME280;53926;47.406;19.188;2023-03-12T14:05:15;100285.63;;;11.19;21.74
67013;BME280;53926;47.406;19.188;2023-03-12T14:13:58;100295.69;;;11.15;21.15
67013;BME280;53926;47.406;19.188;2023-03-12T14:16:38;100290.63;;;11.20;23.31
67013;BME280;53926;47.406;19.188;2023-03-12T14:19:06;100289.22;;;11.93;21.26
67013;BME280;53926;47.406;19.188;2023-03-12T14:21:37;100292.16;;;12.04;21.62
67013;BME280;53926;47.406;19.188;2023-03-12T14:24:06;100298.72;;;11.62;19.66
67013;BME280;53926;47.406;19.188;2023-03-12T14:26:38;100300.69;;;12.78;20.38
67013;BME280;53926;47.406;19.188;2023-03-12T14:29:09;100296.12;;;12.74;20.17
67013;BME280;53926;47.406;19.188;2023-03-12T14:31:41;100299.16;;;11.85;21.93
67013;BME280;53926;47.406;19.188;2023-03-12T14:36:45;100314.38;;;11.12;20.92
67013;BME280;53926;47.406;19.188;2023-03-12T14:39:38;100308.19;;;9.89;24.02
67013;BME280;53926;47.406;19.188;2023-03-12T14:42:08;100317.19;;;9.80;24.80
67013;BME280;53926;47.406;19.188;2023-03-12T14:44:37;100308.63;;;9.66;24.05
67013;BME280;53926;47.406;19.188;2023-03-12T14:47:06;100309.13;;;8.94;24.12
67013;BME280;53926;47.406;19.188;2023-03-12T14:49:40;100313.75;;;9.19;22.98
67013;BME280;53926;47.406;19.188;2023-03-12T14:52:14;100313.56;;;9.21;24.18
67013;BME280;53926;47.406;19.188;2023-03-12T14:55:16;100307.00;;;9.25;23.07
67013;BME280;53926;47.406;19.188;2023-03-12T14:57:44;100304.34;;;9.11;23.81
67013;BME280;53926;47.406;19.188;2023-03-12T15:00:23;100304.31;;;8.78;25.39
67013;BME280;53926;47.406;19.188;2023-03-12T15:02:55;100305.56;;;9.16;22.74
67013;BME280;53926;47.406;19.188;2023-03-12T15:05:23;100302.53;;;8.92;27.23